Robert Lee, Texas
Current Conditions -  °F | °C
As of 4:51 PM on Thursday 18 Dec 2014 (Local Time) from KSJT Reporting Station
Clear Clear  
Wind Chill: 64°   Ceiling: Unl
Heat Index: 64°   Visibility: 10mi
Dew Point: 36°   Wind: 8mph
Humidity: 35%   Direction: 60°ENE
Pressure: 30.02"   Gusts: NA
Location:  31.89°N, 100.48°W
Report Text: KSJT 182251Z 06007KT 10SM CLR 18/02 A3002 RMK AO2 SLP159 T01780022
Loading
Personal Weather Stations






























Interactive Weather Map New forecast layout! Learn more

10-Day Weather Forecast

Advertisements
Track Severe Weather on mobile